sensor_id;sensor_type;location;lat;lon;timestamp;pressure;altitude;pressure_sealevel;temperature;humidity
13709;BME280;54933;51.908;7.730;2022-12-07T00:00:16;100905.00;;;21.08;64.01
13709;BME280;54933;51.908;7.730;2022-12-07T00:02:41;100913.28;;;21.06;63.96
13709;BME280;54933;51.908;7.730;2022-12-07T00:05:07;100917.03;;;21.05;64.27
13709;BME280;54933;51.908;7.730;2022-12-07T00:07:32;100907.28;;;21.04;64.07
13709;BME280;54933;51.908;7.730;2022-12-07T00:09:57;100909.16;;;21.04;64.19
13709;BME280;54933;51.908;7.730;2022-12-07T00:12:23;100901.25;;;21.02;64.10
13709;BME280;54933;51.908;7.730;2022-12-07T00:14:48;100907.50;;;21.03;64.29
13709;BME280;54933;51.908;7.730;2022-12-07T00:17:13;100908.53;;;21.02;64.16
13709;BME280;54933;51.908;7.730;2022-12-07T00:19:38;100907.50;;;21.03;64.36
13709;BME280;54933;51.908;7.730;2022-12-07T00:22:04;100905.81;;;21.02;64.28
13709;BME280;54933;51.908;7.730;2022-12-07T00:24:29;100915.81;;;21.01;64.33
13709;BME280;54933;51.908;7.730;2022-12-07T00:26:54;100909.78;;;20.99;64.41
13709;BME280;54933;51.908;7.730;2022-12-07T00:29:21;100903.34;;;21.00;64.36
13709;BME280;54933;51.908;7.730;2022-12-07T00:31:47;100900.63;;;21.00;64.28
13709;BME280;54933;51.908;7.730;2022-12-07T00:34:16;100902.50;;;21.00;64.31
13709;BME280;54933;51.908;7.730;2022-12-07T00:36:41;100896.28;;;20.99;64.36
13709;BME280;54933;51.908;7.730;2022-12-07T00:39:07;100890.88;;;20.99;64.27
13709;BME280;54933;51.908;7.730;2022-12-07T00:41:32;100891.69;;;21.00;64.46
13709;BME280;54933;51.908;7.730;2022-12-07T00:43:58;100890.88;;;20.99;64.48
13709;BME280;54933;51.908;7.730;2022-12-07T00:46:23;100885.47;;;20.99;64.58
13709;BME280;54933;51.908;7.730;2022-12-07T00:48:49;100888.81;;;21.01;64.47
13709;BME280;54933;51.908;7.730;2022-12-07T00:51:16;100882.56;;;21.01;64.62
13709;BME280;54933;51.908;7.730;2022-12-07T00:53:42;100883.41;;;21.01;64.47
13709;BME280;54933;51.908;7.730;2022-12-07T00:56:15;100875.31;;;21.01;64.52
13709;BME280;54933;51.908;7.730;2022-12-07T00:58:41;100879.03;;;21.00;64.37
13709;BME280;54933;51.908;7.730;2022-12-07T01:01:07;100877.16;;;21.01;64.48
13709;BME280;54933;51.908;7.730;2022-12-07T01:03:34;100878.81;;;21.02;64.21
13709;BME280;54933;51.908;7.730;2022-12-07T01:05:59;100879.66;;;21.02;64.39
13709;BME280;54933;51.908;7.730;2022-12-07T01:08:26;100881.28;;;21.03;64.53
13709;BME280;54933;51.908;7.730;2022-12-07T01:11:08;100875.88;;;21.03;64.26
13709;BME280;54933;51.908;7.730;2022-12-07T01:13:35;100877.56;;;21.04;64.24
13709;BME280;54933;51.908;7.730;2022-12-07T01:16:02;100866.75;;;21.04;64.26
13709;BME280;54933;51.908;7.730;2022-12-07T01:18:29;100879.44;;;21.04;64.20
13709;BME280;54933;51.908;7.730;2022-12-07T01:23:24;100881.28;;;21.03;64.31
13709;BME280;54933;51.908;7.730;2022-12-07T01:26:01;100879.44;;;21.04;64.33
13709;BME280;54933;51.908;7.730;2022-12-07T01:28:27;100884.00;;;21.03;64.19
13709;BME280;54933;51.908;7.730;2022-12-07T01:33:21;100887.75;;;21.02;64.04
13709;BME280;54933;51.908;7.730;2022-12-07T01:35:47;100887.97;;;21.01;64.01
13709;BME280;54933;51.908;7.730;2022-12-07T01:38:12;100888.81;;;21.01;64.14
13709;BME280;54933;51.908;7.730;2022-12-07T01:40:37;100893.38;;;21.01;64.16
13709;BME280;54933;51.908;7.730;2022-12-07T01:43:09;100893.38;;;21.01;64.21
13709;BME280;54933;51.908;7.730;2022-12-07T01:45:41;100892.53;;;21.00;64.24
13709;BME280;54933;51.908;7.730;2022-12-07T01:48:08;100891.69;;;21.00;64.26
13709;BME280;54933;51.908;7.730;2022-12-07T01:50:35;100892.53;;;21.00;64.17
13709;BME280;54933;51.908;7.730;2022-12-07T01:53:03;100892.53;;;21.00;64.12
13709;BME280;54933;51.908;7.730;2022-12-07T01:55:31;100890.88;;;20.99;64.24
13709;BME280;54933;51.908;7.730;2022-12-07T01:57:56;100890.88;;;20.99;64.09
13709;BME280;54933;51.908;7.730;2022-12-07T02:00:22;100888.19;;;20.99;64.26
13709;BME280;54933;51.908;7.730;2022-12-07T02:03:03;100896.28;;;20.99;64.20
13709;BME280;54933;51.908;7.730;2022-12-07T02:05:30;100880.09;;;20.99;63.99
13709;BME280;54933;51.908;7.730;2022-12-07T02:07:56;100893.59;;;20.99;63.99
13709;BME280;54933;51.908;7.730;2022-12-07T02:10:25;100885.47;;;20.99;63.98
13709;BME280;54933;51.908;7.730;2022-12-07T02:12:57;100888.19;;;20.99;64.03
13709;BME280;54933;51.908;7.730;2022-12-07T02:15:29;100892.75;;;20.99;64.23
13709;BME280;54933;51.908;7.730;2022-12-07T02:18:07;100890.03;;;20.99;64.07
13709;BME280;54933;51.908;7.730;2022-12-07T02:20:46;100885.47;;;20.99;64.00
13709;BME280;54933;51.908;7.730;2022-12-07T02:29:13;100882.78;;;20.99;64.09
13709;BME280;54933;51.908;7.730;2022-12-07T02:31:51;100883.00;;;20.98;64.10
13709;BME280;54933;51.908;7.730;2022-12-07T02:34:37;100880.28;;;20.98;64.09
13709;BME280;54933;51.908;7.730;2022-12-07T02:37:12;100889.22;;;20.98;64.04
13709;BME280;54933;51.908;7.730;2022-12-07T02:39:46;100881.94;;;20.99;63.97
13709;BME280;54933;51.908;7.730;2022-12-07T02:42:22;100891.09;;;20.98;63.95
13709;BME280;54933;51.908;7.730;2022-12-07T02:44:48;100883.81;;;20.98;64.15
13709;BME280;54933;51.908;7.730;2022-12-07T02:47:16;100886.50;;;20.98;64.04
13709;BME280;54933;51.908;7.730;2022-12-07T02:49:42;100882.16;;;20.97;64.00
13709;BME280;54933;51.908;7.730;2022-12-07T02:52:08;100882.16;;;20.97;64.18
13709;BME280;54933;51.908;7.730;2022-12-07T02:54:33;100876.75;;;20.97;63.90
13709;BME280;54933;51.908;7.730;2022-12-07T03:00:05;100882.16;;;20.97;63.79
13709;BME280;54933;51.908;7.730;2022-12-07T03:03:06;100876.75;;;20.97;63.82
13709;BME280;54933;51.908;7.730;2022-12-07T03:05:48;100877.78;;;20.96;64.01
13709;BME280;54933;51.908;7.730;2022-12-07T03:08:36;100868.84;;;20.96;63.80
13709;BME280;54933;51.908;7.730;2022-12-07T03:11:06;100880.47;;;20.96;63.91
13709;BME280;54933;51.908;7.730;2022-12-07T03:16:15;100875.06;;;20.96;63.88
13709;BME280;54933;51.908;7.730;2022-12-07T03:18:57;100873.41;;;20.95;63.66
13709;BME280;54933;51.908;7.730;2022-12-07T03:21:46;100870.69;;;20.95;63.87
13709;BME280;54933;51.908;7.730;2022-12-07T03:24:16;100869.69;;;20.96;63.87
13709;BME280;54933;51.908;7.730;2022-12-07T03:26:47;100874.25;;;20.96;63.77
13709;BME280;54933;51.908;7.730;2022-12-07T03:29:25;100866.97;;;20.96;63.80
13709;BME280;54933;51.908;7.730;2022-12-07T03:31:58;100868.00;;;20.95;63.91
13709;BME280;54933;51.908;7.730;2022-12-07T03:34:31;100871.34;;;20.97;63.56
13709;BME280;54933;51.908;7.730;2022-12-07T03:37:04;100862.59;;;20.95;64.26
13709;BME280;54933;51.908;7.730;2022-12-07T03:39:46;100864.28;;;20.96;63.74
13709;BME280;54933;51.908;7.730;2022-12-07T03:42:14;100856.16;;;20.96;63.90
13709;BME280;54933;51.908;7.730;2022-12-07T03:44:40;100856.16;;;20.96;63.91
13709;BME280;54933;51.908;7.730;2022-12-07T03:48:03;100864.28;;;20.96;63.78
13709;BME280;54933;51.908;7.730;2022-12-07T03:50:07;100864.28;;;20.96;63.96
13709;BME280;54933;51.908;7.730;2022-12-07T03:52:45;100864.28;;;20.96;63.88
13709;BME280;54933;51.908;7.730;2022-12-07T03:55:28;100863.44;;;20.96;63.98
13709;BME280;54933;51.908;7.730;2022-12-07T03:57:58;100864.28;;;20.96;63.81
13709;BME280;54933;51.908;7.730;2022-12-07T04:00:25;100863.44;;;20.96;63.93
13709;BME280;54933;51.908;7.730;2022-12-07T04:02:52;100864.28;;;20.96;63.75
13709;BME280;54933;51.908;7.730;2022-12-07T04:05:18;100865.28;;;20.95;63.86
13709;BME280;54933;51.908;7.730;2022-12-07T04:07:43;100864.28;;;20.96;63.85
13709;BME280;54933;51.908;7.730;2022-12-07T04:10:09;100854.31;;;20.97;63.90
13709;BME280;54933;51.908;7.730;2022-12-07T04:12:34;100848.06;;;20.96;63.77
13709;BME280;54933;51.908;7.730;2022-12-07T04:15:00;100856.16;;;20.96;63.66
13709;BME280;54933;51.908;7.730;2022-12-07T04:17:25;100856.16;;;20.96;63.80
13709;BME280;54933;51.908;7.730;2022-12-07T04:19:50;100855.34;;;20.96;63.69
13709;BME280;54933;51.908;7.730;2022-12-07T04:22:16;100867.81;;;20.97;63.54
13709;BME280;54933;51.908;7.730;2022-12-07T04:24:41;100858.03;;;20.96;63.93
13709;BME280;54933;51.908;7.730;2022-12-07T04:27:06;100857.00;;;20.97;63.78
13709;BME280;54933;51.908;7.730;2022-12-07T04:29:32;100863.44;;;20.96;63.75
13709;BME280;54933;51.908;7.730;2022-12-07T04:31:57;100853.47;;;20.96;63.60
13709;BME280;54933;51.908;7.730;2022-12-07T04:34:22;100866.97;;;20.96;63.70
13709;BME280;54933;51.908;7.730;2022-12-07T04:36:48;100862.59;;;20.95;63.88
13709;BME280;54933;51.908;7.730;2022-12-07T04:39:30;100857.19;;;20.95;63.67
13709;BME280;54933;51.908;7.730;2022-12-07T04:41:56;100868.00;;;20.95;63.63
13709;BME280;54933;51.908;7.730;2022-12-07T04:44:22;100868.84;;;20.96;63.82
13709;BME280;54933;51.908;7.730;2022-12-07T04:46:49;100870.69;;;20.95;64.03
13709;BME280;54933;51.908;7.730;2022-12-07T04:49:14;100865.28;;;20.95;63.88
13709;BME280;54933;51.908;7.730;2022-12-07T04:51:40;100868.00;;;20.95;63.76
13709;BME280;54933;51.908;7.730;2022-12-07T04:54:06;100868.00;;;20.95;63.78
13709;BME280;54933;51.908;7.730;2022-12-07T04:56:31;100868.00;;;20.95;63.80
13709;BME280;54933;51.908;7.730;2022-12-07T04:58:57;100868.84;;;20.96;63.61
13709;BME280;54933;51.908;7.730;2022-12-07T05:01:23;100870.69;;;20.95;63.76
13709;BME280;54933;51.908;7.730;2022-12-07T05:03:49;100868.84;;;20.96;63.75
13709;BME280;54933;51.908;7.730;2022-12-07T05:06:15;100862.59;;;20.95;63.53
13709;BME280;54933;51.908;7.730;2022-12-07T05:08:40;100862.59;;;20.95;63.68
13709;BME280;54933;51.908;7.730;2022-12-07T05:11:06;100862.59;;;20.95;63.59
13709;BME280;54933;51.908;7.730;2022-12-07T05:13:32;100851.78;;;20.95;63.84
13709;BME280;54933;51.908;7.730;2022-12-07T05:15:58;100864.28;;;20.96;63.81
13709;BME280;54933;51.908;7.730;2022-12-07T05:18:24;100861.16;;;20.99;63.65
13709;BME280;54933;51.908;7.730;2022-12-07T05:20:50;100862.19;;;20.98;63.66
13709;BME280;54933;51.908;7.730;2022-12-07T05:23:16;100857.84;;;20.97;63.82
13709;BME280;54933;51.908;7.730;2022-12-07T05:25:41;100867.59;;;20.98;63.63
13709;BME280;54933;51.908;7.730;2022-12-07T05:28:06;100863.03;;;20.99;63.82
13709;BME280;54933;51.908;7.730;2022-12-07T05:30:33;100872.38;;;20.96;63.82
13709;BME280;54933;51.908;7.730;2022-12-07T05:32:58;100873.63;;;20.94;63.68
13709;BME280;54933;51.908;7.730;2022-12-07T05:35:24;100863.03;;;20.92;63.84
13709;BME280;54933;51.908;7.730;2022-12-07T05:40:15;100862.41;;;20.90;63.85
13709;BME280;54933;51.908;7.730;2022-12-07T05:42:40;100861.38;;;20.91;64.07
13709;BME280;54933;51.908;7.730;2022-12-07T05:45:07;100858.06;;;20.89;64.16
13709;BME280;54933;51.908;7.730;2022-12-07T05:47:33;100846.41;;;20.89;63.96
13709;BME280;54933;51.908;7.730;2022-12-07T05:49:58;100845.59;;;20.88;64.24
13709;BME280;54933;51.908;7.730;2022-12-07T05:52:24;100836.66;;;20.88;64.11
13709;BME280;54933;51.908;7.730;2022-12-07T05:54:49;100849.34;;;20.87;64.24
13709;BME280;54933;51.908;7.730;2022-12-07T05:57:14;100840.59;;;20.85;64.24
13709;BME280;54933;51.908;7.730;2022-12-07T05:59:40;100841.44;;;20.86;64.13
13709;BME280;54933;51.908;7.730;2022-12-07T06:02:11;100839.78;;;20.85;64.38
13709;BME280;54933;51.908;7.730;2022-12-07T06:04:38;100838.75;;;20.86;64.24
13709;BME280;54933;51.908;7.730;2022-12-07T06:07:05;100837.09;;;20.85;64.22
13709;BME280;54933;51.908;7.730;2022-12-07T06:09:31;100851.41;;;20.85;64.29
13709;BME280;54933;51.908;7.730;2022-12-07T06:11:58;100849.75;;;20.84;64.38
13709;BME280;54933;51.908;7.730;2022-12-07T06:14:42;100853.31;;;20.85;64.45
13709;BME280;54933;51.908;7.730;2022-12-07T06:17:08;100861.19;;;20.86;64.17
13709;BME280;54933;51.908;7.730;2022-12-07T06:19:34;100855.78;;;20.86;64.31
13709;BME280;54933;51.908;7.730;2022-12-07T06:22:02;100855.56;;;20.88;64.50
13709;BME280;54933;51.908;7.730;2022-12-07T06:24:27;100850.16;;;20.88;64.62
13709;BME280;54933;51.908;7.730;2022-12-07T06:26:53;100841.84;;;20.89;64.73
13709;BME280;54933;51.908;7.730;2022-12-07T06:29:18;100838.09;;;20.90;65.02
13709;BME280;54933;51.908;7.730;2022-12-07T06:31:44;100837.06;;;20.91;65.23
13709;BME280;54933;51.908;7.730;2022-12-07T06:34:12;100850.34;;;20.93;65.53
13709;BME280;54933;51.908;7.730;2022-12-07T06:36:38;100836.22;;;19.75;60.96
13709;BME280;54933;51.908;7.730;2022-12-07T06:39:04;100851.97;;;20.10;58.91
13709;BME280;54933;51.908;7.730;2022-12-07T06:41:30;100861.53;;;20.33;58.65
13709;BME280;54933;51.908;7.730;2022-12-07T06:43:56;100857.56;;;20.48;59.55
13709;BME280;54933;51.908;7.730;2022-12-07T06:46:21;100857.09;;;20.58;60.37
13709;BME280;54933;51.908;7.730;2022-12-07T06:48:47;100849.84;;;20.65;60.76
13709;BME280;54933;51.908;7.730;2022-12-07T06:51:12;100859.19;;;20.69;61.14
13709;BME280;54933;51.908;7.730;2022-12-07T06:53:37;100853.13;;;20.73;61.44
13709;BME280;54933;51.908;7.730;2022-12-07T06:56:03;100857.47;;;20.74;61.59
13709;BME280;54933;51.908;7.730;2022-12-07T06:58:29;100865.59;;;20.74;61.69
13709;BME280;54933;51.908;7.730;2022-12-07T07:00:55;100864.34;;;20.77;61.98
13709;BME280;54933;51.908;7.730;2022-12-07T07:03:20;100865.16;;;20.77;62.05
13709;BME280;54933;51.908;7.730;2022-12-07T07:05:46;100866.81;;;20.78;62.18
13709;BME280;54933;51.908;7.730;2022-12-07T07:08:11;100864.13;;;20.78;62.22
13709;BME280;54933;51.908;7.730;2022-12-07T07:10:37;100873.88;;;20.79;62.21
13709;BME280;54933;51.908;7.730;2022-12-07T07:13:03;100857.19;;;20.18;59.56
13709;BME280;54933;51.908;7.730;2022-12-07T07:15:29;100861.13;;;19.96;57.05
13709;BME280;54933;51.908;7.730;2022-12-07T07:17:54;100870.66;;;20.25;56.02
13709;BME280;54933;51.908;7.730;2022-12-07T07:20:19;100880.81;;;20.43;56.63
13709;BME280;54933;51.908;7.730;2022-12-07T07:22:45;100883.69;;;20.54;57.70
13709;BME280;54933;51.908;7.730;2022-12-07T07:25:10;100877.47;;;20.60;58.47
13709;BME280;54933;51.908;7.730;2022-12-07T07:27:35;100872.28;;;20.65;59.06
13709;BME280;54933;51.908;7.730;2022-12-07T07:30:01;100878.09;;;20.69;59.19
13709;BME280;54933;51.908;7.730;2022-12-07T07:32:26;100876.19;;;20.69;59.64
13709;BME280;54933;51.908;7.730;2022-12-07T07:34:51;100880.56;;;20.70;59.96
13709;BME280;54933;51.908;7.730;2022-12-07T07:37:17;100879.09;;;20.74;60.07
13709;BME280;54933;51.908;7.730;2022-12-07T07:39:42;100888.66;;;20.77;60.14
13709;BME280;54933;51.908;7.730;2022-12-07T07:42:07;100890.50;;;20.76;60.37
13709;BME280;54933;51.908;7.730;2022-12-07T07:44:33;100885.94;;;20.77;60.33
13709;BME280;54933;51.908;7.730;2022-12-07T07:46:59;100885.72;;;20.78;60.77
13709;BME280;54933;51.908;7.730;2022-12-07T07:49:24;100881.34;;;20.77;60.59
13709;BME280;54933;51.908;7.730;2022-12-07T07:51:50;100880.53;;;20.77;61.21
13709;BME280;54933;51.908;7.730;2022-12-07T07:54:15;100879.72;;;20.76;61.24
13709;BME280;54933;51.908;7.730;2022-12-07T07:56:40;100886.75;;;20.77;61.45
13709;BME280;54933;51.908;7.730;2022-12-07T07:59:05;100893.84;;;20.78;61.55
13709;BME280;54933;51.908;7.730;2022-12-07T08:01:31;100888.44;;;20.78;61.67
13709;BME280;54933;51.908;7.730;2022-12-07T08:03:56;100897.13;;;20.80;61.77
13709;BME280;54933;51.908;7.730;2022-12-07T08:06:21;100891.72;;;20.80;61.78
13709;BME280;54933;51.908;7.730;2022-12-07T08:08:47;100890.72;;;20.81;61.80
13709;BME280;54933;51.908;7.730;2022-12-07T08:11:12;100889.66;;;20.82;62.08
13709;BME280;54933;51.908;7.730;2022-12-07T08:13:37;100885.09;;;20.83;62.03
13709;BME280;54933;51.908;7.730;2022-12-07T08:16:04;100894.63;;;20.85;61.92
13709;BME280;54933;51.908;7.730;2022-12-07T08:18:30;100896.31;;;20.86;61.89
13709;BME280;54933;51.908;7.730;2022-12-07T08:21:02;100889.84;;;20.87;61.87
13709;BME280;54933;51.908;7.730;2022-12-07T08:23:28;100893.38;;;20.88;62.01
13709;BME280;54933;51.908;7.730;2022-12-07T08:25:53;100899.63;;;20.88;61.90
13709;BME280;54933;51.908;7.730;2022-12-07T08:28:18;100889.63;;;20.89;61.78
13709;BME280;54933;51.908;7.730;2022-12-07T08:30:44;100894.22;;;20.88;62.04
13709;BME280;54933;51.908;7.730;2022-12-07T08:33:09;100891.72;;;20.87;61.81
13709;BME280;54933;51.908;7.730;2022-12-07T08:35:35;100887.16;;;20.87;61.75
13709;BME280;54933;51.908;7.730;2022-12-07T08:38:01;100894.22;;;20.88;62.03
13709;BME280;54933;51.908;7.730;2022-12-07T08:40:27;100894.22;;;20.88;61.90
13709;BME280;54933;51.908;7.730;2022-12-07T08:42:52;100891.53;;;20.88;61.92
13709;BME280;54933;51.908;7.730;2022-12-07T08:45:19;100893.38;;;20.88;61.90
13709;BME280;54933;51.908;7.730;2022-12-07T08:47:49;100888.81;;;20.88;61.91
13709;BME280;54933;51.908;7.730;2022-12-07T08:50:16;100889.84;;;20.87;62.10
13709;BME280;54933;51.908;7.730;2022-12-07T08:52:42;100895.25;;;20.87;62.24
13709;BME280;54933;51.908;7.730;2022-12-07T08:55:10;100891.53;;;20.88;62.21
13709;BME280;54933;51.908;7.730;2022-12-07T08:57:36;100894.81;;;20.90;62.50
13709;BME280;54933;51.908;7.730;2022-12-07T09:00:03;100888.59;;;20.90;62.63
13709;BME280;54933;51.908;7.730;2022-12-07T09:02:30;100893.16;;;20.89;62.68
13709;BME280;54933;51.908;7.730;2022-12-07T09:04:56;100896.50;;;20.91;62.71
13709;BME280;54933;51.908;7.730;2022-12-07T09:07:21;100888.59;;;20.90;63.03
13709;BME280;54933;51.908;7.730;2022-12-07T09:09:46;100888.41;;;20.91;62.89
13709;BME280;54933;51.908;7.730;2022-12-07T09:14:37;100897.09;;;20.93;63.11
13709;BME280;54933;51.908;7.730;2022-12-07T09:17:09;100886.28;;;20.93;63.12
13709;BME280;54933;51.908;7.730;2022-12-07T09:19:35;100890.03;;;20.92;63.11
13709;BME280;54933;51.908;7.730;2022-12-07T09:22:01;100892.53;;;20.94;63.01
13709;BME280;54933;51.908;7.730;2022-12-07T09:24:26;100896.06;;;20.94;63.33
13709;BME280;54933;51.908;7.730;2022-12-07T09:26:51;100895.00;;;20.95;63.13
13709;BME280;54933;51.908;7.730;2022-12-07T09:29:17;100892.13;;;20.97;63.22
13709;BME280;54933;51.908;7.730;2022-12-07T09:31:42;100894.00;;;20.96;63.00
13709;BME280;54933;51.908;7.730;2022-12-07T09:34:08;100891.28;;;20.96;63.15
13709;BME280;54933;51.908;7.730;2022-12-07T09:36:34;100890.25;;;20.97;62.88
13709;BME280;54933;51.908;7.730;2022-12-07T09:38:59;100885.88;;;20.96;62.88
13709;BME280;54933;51.908;7.730;2022-12-07T09:41:26;100891.28;;;20.96;63.03
13709;BME280;54933;51.908;7.730;2022-12-07T09:43:53;100886.72;;;20.97;62.93
13709;BME280;54933;51.908;7.730;2022-12-07T09:46:23;100887.56;;;20.97;63.01
13709;BME280;54933;51.908;7.730;2022-12-07T09:48:49;100882.16;;;20.97;62.85
13709;BME280;54933;51.908;7.730;2022-12-07T09:51:21;100886.50;;;20.98;63.59
13709;BME280;54933;51.908;7.730;2022-12-07T09:53:48;100884.66;;;20.99;62.98
13709;BME280;54933;51.908;7.730;2022-12-07T09:56:15;100878.41;;;20.98;63.12
13709;BME280;54933;51.908;7.730;2022-12-07T09:58:42;100884.44;;;21.00;63.02
13709;BME280;54933;51.908;7.730;2022-12-07T10:03:34;100887.13;;;21.00;62.92
13709;BME280;54933;51.908;7.730;2022-12-07T10:06:00;100885.28;;;21.01;63.02
13709;BME280;54933;51.908;7.730;2022-12-07T10:08:25;100884.22;;;21.02;62.83
13709;BME280;54933;51.908;7.730;2022-12-07T10:10:52;100883.41;;;21.01;62.86
13709;BME280;54933;51.908;7.730;2022-12-07T10:13:21;100872.59;;;21.01;62.98
13709;BME280;54933;51.908;7.730;2022-12-07T10:15:53;100868.84;;;21.02;62.99
13709;BME280;54933;51.908;7.730;2022-12-07T10:18:37;100870.47;;;21.03;62.77
13709;BME280;54933;51.908;7.730;2022-12-07T10:21:24;100869.69;;;21.03;62.82
13709;BME280;54933;51.908;7.730;2022-12-07T10:24:13;100867.19;;;21.01;62.88
13709;BME280;54933;51.908;7.730;2022-12-07T10:29:17;100868.84;;;21.02;63.08
13709;BME280;54933;51.908;7.730;2022-12-07T10:31:46;100870.47;;;21.03;62.88
13709;BME280;54933;51.908;7.730;2022-12-07T10:34:29;100865.09;;;21.03;62.96
13709;BME280;54933;51.908;7.730;2022-12-07T10:39:58;100861.34;;;21.04;63.35
13709;BME280;54933;51.908;7.730;2022-12-07T10:42:28;100859.47;;;21.05;62.88
13709;BME280;54933;51.908;7.730;2022-12-07T10:47:56;100868.41;;;21.05;62.72
13709;BME280;54933;51.908;7.730;2022-12-07T10:50:37;100854.06;;;21.05;62.82
13709;BME280;54933;51.908;7.730;2022-12-07T10:56:11;100843.66;;;21.08;63.00
13709;BME280;54933;51.908;7.730;2022-12-07T11:01:39;100844.28;;;21.10;63.19
13709;BME280;54933;51.908;7.730;2022-12-07T11:04:29;100835.94;;;21.12;63.22
13709;BME280;54933;51.908;7.730;2022-12-07T11:07:14;100835.13;;;21.11;63.15
13709;BME280;54933;51.908;7.730;2022-12-07T11:10:10;100832.84;;;21.08;62.97
13709;BME280;54933;51.908;7.730;2022-12-07T11:18:36;100814.34;;;21.12;63.12
13709;BME280;54933;51.908;7.730;2022-12-07T11:21:22;100812.47;;;21.12;63.22
13709;BME280;54933;51.908;7.730;2022-12-07T11:24:16;100815.41;;;21.11;63.30
13709;BME280;54933;51.908;7.730;2022-12-07T11:27:08;100802.47;;;21.13;63.24
13709;BME280;54933;51.908;7.730;2022-12-07T11:35:02;100814.13;;;21.13;63.11
13709;BME280;54933;51.908;7.730;2022-12-07T11:37:33;100809.56;;;21.14;63.31
13709;BME280;54933;51.908;7.730;2022-12-07T11:40:15;100802.28;;;21.14;63.23
13709;BME280;54933;51.908;7.730;2022-12-07T11:42:51;100803.09;;;21.15;63.20
13709;BME280;54933;51.908;7.730;2022-12-07T11:45:19;100796.88;;;21.14;63.40
13709;BME280;54933;51.908;7.730;2022-12-07T11:47:51;100792.28;;;21.15;63.42
13709;BME280;54933;51.908;7.730;2022-12-07T11:50:39;100795.19;;;21.13;63.31
13709;BME280;54933;51.908;7.730;2022-12-07T11:55:54;100793.56;;;21.12;63.36
13709;BME280;54933;51.908;7.730;2022-12-07T12:03:52;100792.50;;;21.13;63.54
13709;BME280;54933;51.908;7.730;2022-12-07T12:06:21;100788.97;;;21.13;63.85
13709;BME280;54933;51.908;7.730;2022-12-07T12:08:58;100788.16;;;21.12;63.59
13709;BME280;54933;51.908;7.730;2022-12-07T12:19:43;100779.81;;;21.14;65.27
13709;BME280;54933;51.908;7.730;2022-12-07T12:22:23;100781.69;;;21.13;65.01
13709;BME280;54933;51.908;7.730;2022-12-07T12:24:53;100769.84;;;21.14;65.26
13709;BME280;54933;51.908;7.730;2022-12-07T12:27:34;100766.31;;;21.14;64.88
13709;BME280;54933;51.908;7.730;2022-12-07T12:30:29;100769.84;;;21.14;65.33
13709;BME280;54933;51.908;7.730;2022-12-07T12:32:51;100767.75;;;21.16;65.53
13709;BME280;54933;51.908;7.730;2022-12-07T12:35:30;100772.72;;;21.19;65.55
13709;BME280;54933;51.908;7.730;2022-12-07T12:40:57;100760.25;;;21.18;65.39
13709;BME280;54933;51.908;7.730;2022-12-07T12:43:48;100761.31;;;21.17;65.76
13709;BME280;54933;51.908;7.730;2022-12-07T12:49:14;100753.19;;;21.17;65.85
13709;BME280;54933;51.908;7.730;2022-12-07T12:52:00;100743.41;;;21.16;66.15
13709;BME280;54933;51.908;7.730;2022-12-07T12:57:34;100757.78;;;21.17;66.16
13709;BME280;54933;51.908;7.730;2022-12-07T13:00:14;100765.66;;;21.18;66.24
13709;BME280;54933;51.908;7.730;2022-12-07T13:02:58;100759.41;;;21.18;66.02
13709;BME280;54933;51.908;7.730;2022-12-07T13:05:30;100753.19;;;21.17;65.99
13709;BME280;54933;51.908;7.730;2022-12-07T13:08:00;100754.84;;;21.18;65.97
13709;BME280;54933;51.908;7.730;2022-12-07T13:12:56;100752.16;;;21.18;65.92
13709;BME280;54933;51.908;7.730;2022-12-07T13:18:00;100735.72;;;21.20;65.67
13709;BME280;54933;51.908;7.730;2022-12-07T13:20:46;100738.19;;;21.21;65.50
13709;BME280;54933;51.908;7.730;2022-12-07T13:23:13;100736.56;;;21.20;65.63
13709;BME280;54933;51.908;7.730;2022-12-07T13:25:51;100730.09;;;21.21;65.57
13709;BME280;54933;51.908;7.730;2022-12-07T13:28:20;100734.47;;;21.22;65.38
13709;BME280;54933;51.908;7.730;2022-12-07T13:31:00;100731.97;;;21.21;65.38
13709;BME280;54933;51.908;7.730;2022-12-07T13:33:29;100740.69;;;21.23;65.24
13709;BME280;54933;51.908;7.730;2022-12-07T13:35:55;100725.53;;;21.22;65.25
13709;BME280;54933;51.908;7.730;2022-12-07T13:38:35;100721.97;;;21.21;65.30
13709;BME280;54933;51.908;7.730;2022-12-07T13:41:18;100715.75;;;21.21;65.17
13709;BME280;54933;51.908;7.730;2022-12-07T13:43:49;100722.81;;;21.22;65.33
13709;BME280;54933;51.908;7.730;2022-12-07T13:46:15;100727.38;;;21.21;64.93
13709;BME280;54933;51.908;7.730;2022-12-07T13:48:45;100726.19;;;21.17;64.95
13709;BME280;54933;51.908;7.730;2022-12-07T13:51:28;100728.66;;;21.19;65.05
13709;BME280;54933;51.908;7.730;2022-12-07T13:53:55;100722.41;;;21.18;64.94
13709;BME280;54933;51.908;7.730;2022-12-07T13:56:28;100722.41;;;21.18;64.96
13709;BME280;54933;51.908;7.730;2022-12-07T13:58:56;100709.13;;;21.17;65.06
13709;BME280;54933;51.908;7.730;2022-12-07T14:01:22;100713.25;;;21.19;65.18
13709;BME280;54933;51.908;7.730;2022-12-07T14:03:47;100700.81;;;21.18;65.08
13709;BME280;54933;51.908;7.730;2022-12-07T14:06:31;100706.22;;;21.18;65.00
13709;BME280;54933;51.908;7.730;2022-12-07T14:09:07;100706.00;;;21.20;64.80
13709;BME280;54933;51.908;7.730;2022-12-07T14:11:33;100698.72;;;21.20;64.96
13709;BME280;54933;51.908;7.730;2022-12-07T14:14:00;100701.19;;;21.22;65.03
13709;BME280;54933;51.908;7.730;2022-12-07T14:16:32;100700.34;;;21.21;64.68
13709;BME280;54933;51.908;7.730;2022-12-07T14:19:03;100696.63;;;21.22;65.07
13709;BME280;54933;51.908;7.730;2022-12-07T14:21:33;100696.63;;;21.22;64.78